createdAt,value
2023-02-02T00:00:01.018Z,12.65
2023-02-02T00:01:04.007Z,11.54
2023-02-02T00:02:06.555Z,10.22
2023-02-02T00:03:09.283Z,7.90
2023-02-02T00:04:11.920Z,8.60
2023-02-02T00:05:14.532Z,8.94
2023-02-02T00:06:17.338Z,12.67
2023-02-02T00:07:20.009Z,11.55
2023-02-02T00:08:22.683Z,11.69
2023-02-02T00:09:25.245Z,9.12
2023-02-02T00:10:27.938Z,9.55
2023-02-02T00:11:30.691Z,10.33
2023-02-02T00:12:33.769Z,12.77
2023-02-02T00:13:36.645Z,16.23
2023-02-02T00:14:39.539Z,11.92
2023-02-02T00:15:42.538Z,10.61
2023-02-02T00:16:45.581Z,11.18
2023-02-02T00:17:48.555Z,12.46
2023-02-02T00:18:51.440Z,11.32
2023-02-02T00:19:54.433Z,10.60
2023-02-02T00:20:57.402Z,13.23
2023-02-02T00:22:00.421Z,11.99
2023-02-02T00:23:03.232Z,8.82
2023-02-02T00:24:06.018Z,9.71
2023-02-02T00:25:08.782Z,8.52
2023-02-02T00:26:11.766Z,8.91
2023-02-02T00:27:15.034Z,9.01
2023-02-02T00:28:17.809Z,10.90
2023-02-02T00:29:20.682Z,11.02
2023-02-02T00:30:23.630Z,10.77
2023-02-02T00:31:26.513Z,11.62
2023-02-02T00:32:29.726Z,10.21
2023-02-02T00:33:32.498Z,12.57
2023-02-02T00:34:35.167Z,9.72
2023-02-02T00:35:38.036Z,10.58
2023-02-02T00:36:40.916Z,7.76
2023-02-02T00:37:44.190Z,9.21
2023-02-02T00:38:46.968Z,8.65
2023-02-02T00:39:49.735Z,10.68
2023-02-02T00:40:52.724Z,10.06
2023-02-02T00:41:55.491Z,10.78
2023-02-02T00:42:58.360Z,10.25
2023-02-02T00:44:01.132Z,9.49
2023-02-02T00:45:04.110Z,9.68
2023-02-02T00:46:07.111Z,9.50
2023-02-02T00:47:09.760Z,10.74
2023-02-02T00:48:12.859Z,12.31
2023-02-02T00:49:15.667Z,9.94
2023-02-02T00:50:18.490Z,11.47
2023-02-02T00:51:21.369Z,10.08
2023-02-02T00:52:24.137Z,10.50
2023-02-02T00:53:27.024Z,8.13
2023-02-02T00:54:29.581Z,10.99
2023-02-02T00:55:32.259Z,10.34
2023-02-02T00:56:35.058Z,12.39
2023-02-02T00:57:37.744Z,9.43
2023-02-02T00:58:40.427Z,10.13
2023-02-02T00:59:42.934Z,10.19
2023-02-02T01:00:45.587Z,11.22
2023-02-02T01:01:48.396Z,10.48
2023-02-02T01:02:51.043Z,11.16
2023-02-02T01:03:53.816Z,10.16
2023-02-02T01:04:56.778Z,10.19
2023-02-02T01:05:59.696Z,8.92
2023-02-02T01:07:02.538Z,10.69
2023-02-02T01:08:05.415Z,10.68
2023-02-02T01:09:08.701Z,11.25
2023-02-02T01:10:11.263Z,10.39
2023-02-02T01:11:14.026Z,11.96
2023-02-02T01:12:16.941Z,10.62
2023-02-02T01:13:19.985Z,9.19
2023-02-02T01:14:22.867Z,9.05
2023-02-02T01:15:26.066Z,8.81
2023-02-02T01:16:29.039Z,8.69
2023-02-02T01:17:31.995Z,10.61
2023-02-02T01:18:34.761Z,11.27
2023-02-02T01:19:37.986Z,8.72
2023-02-02T01:20:40.634Z,10.75
2023-02-02T01:21:43.414Z,9.68
2023-02-02T01:22:45.984Z,9.88
2023-02-02T01:23:48.528Z,8.92
2023-02-02T01:24:51.422Z,9.98
2023-02-02T01:25:53.981Z,11.43
2023-02-02T01:26:56.649Z,12.55
2023-02-02T01:27:59.459Z,11.20
2023-02-02T01:29:01.988Z,12.61
2023-02-02T01:30:04.767Z,9.68
2023-02-02T01:31:07.501Z,12.83
2023-02-02T01:32:10.158Z,9.58
2023-02-02T01:33:12.874Z,11.43
2023-02-02T01:34:15.656Z,9.21
2023-02-02T01:35:18.411Z,8.04
2023-02-02T01:36:21.100Z,13.02
2023-02-02T01:37:23.660Z,8.38
2023-02-02T01:38:26.389Z,8.15
2023-02-02T01:39:28.998Z,10.98
2023-02-02T01:40:31.879Z,10.88
2023-02-02T01:41:34.427Z,9.13
2023-02-02T01:42:38.225Z,9.95
2023-02-02T01:43:40.799Z,9.32
2023-02-02T01:44:43.570Z,9.85
2023-02-02T01:45:46.245Z,12.01
2023-02-02T01:46:49.079Z,10.33
2023-02-02T01:47:51.594Z,9.87
2023-02-02T01:48:54.554Z,10.85
2023-02-02T01:49:57.328Z,11.21
2023-02-02T01:51:00.206Z,12.68
2023-02-02T01:52:03.010Z,11.55
2023-02-02T01:53:05.954Z,10.83
2023-02-02T01:54:08.626Z,7.58
2023-02-02T01:55:11.405Z,8.52
2023-02-02T01:56:14.270Z,8.88
2023-02-02T01:57:17.548Z,10.11
2023-02-02T01:58:20.378Z,9.89
2023-02-02T01:59:23.106Z,11.52
2023-02-02T02:00:26.054Z,9.67
2023-02-02T02:01:28.803Z,8.66
2023-02-02T02:02:31.529Z,10.04
2023-02-02T02:03:34.179Z,11.62
2023-02-02T02:04:36.852Z,9.60
2023-02-02T02:05:39.527Z,8.96
2023-02-02T02:06:42.171Z,9.29
2023-02-02T02:07:44.752Z,10.98
2023-02-02T02:08:47.358Z,10.15
2023-02-02T02:09:49.896Z,8.18
2023-02-02T02:10:52.469Z,12.12
2023-02-02T02:11:56.662Z,10.22
2023-02-02T02:12:59.247Z,9.10
2023-02-02T02:14:01.908Z,10.62
2023-02-02T02:15:04.505Z,13.13
2023-02-02T02:16:07.097Z,12.23
2023-02-02T02:17:09.923Z,10.38
2023-02-02T02:18:12.677Z,12.07
2023-02-02T02:19:15.457Z,10.65
2023-02-02T02:20:18.235Z,13.97
2023-02-02T02:21:20.993Z,9.83
2023-02-02T02:22:24.079Z,9.87
2023-02-02T02:23:26.655Z,9.36
2023-02-02T02:24:29.412Z,9.63
2023-02-02T02:25:32.405Z,9.46
2023-02-02T02:26:34.946Z,9.94
2023-02-02T02:27:38.046Z,10.55
2023-02-02T02:28:40.997Z,9.92
2023-02-02T02:29:43.705Z,9.30
2023-02-02T02:30:46.555Z,9.63
2023-02-02T02:31:49.829Z,13.98
2023-02-02T02:32:52.832Z,9.15
2023-02-02T02:33:55.491Z,11.08
2023-02-02T02:34:58.284Z,10.76
2023-02-02T02:36:00.950Z,10.30
2023-02-02T02:37:03.634Z,9.60
2023-02-02T02:38:06.294Z,10.40
2023-02-02T02:39:08.750Z,13.56
2023-02-02T02:40:11.418Z,11.03
2023-02-02T02:41:15.801Z,11.68
2023-02-02T02:42:18.287Z,9.80
2023-02-02T02:43:21.065Z,10.72
2023-02-02T02:44:23.628Z,9.80
2023-02-02T02:45:26.713Z,8.18
2023-02-02T02:46:29.566Z,9.99
2023-02-02T02:47:32.156Z,9.73
2023-02-02T02:48:34.931Z,10.22
2023-02-02T02:49:37.496Z,10.72
2023-02-02T02:50:40.172Z,10.75
2023-02-02T02:51:42.833Z,11.73
2023-02-02T02:52:45.535Z,10.29
2023-02-02T02:53:48.062Z,12.30
2023-02-02T02:54:50.748Z,9.66
2023-02-02T02:55:53.300Z,12.43
2023-02-02T02:56:57.178Z,12.48
2023-02-02T02:57:59.786Z,13.01
2023-02-02T02:59:02.468Z,12.50
2023-02-02T03:00:05.241Z,13.62
2023-02-02T03:01:07.999Z,13.25
2023-02-02T03:02:10.872Z,10.78
2023-02-02T03:03:13.808Z,11.17
2023-02-02T03:04:16.623Z,9.28
2023-02-02T03:05:19.476Z,10.38
2023-02-02T03:06:22.348Z,8.80
2023-02-02T03:07:25.255Z,12.14
2023-02-02T03:08:28.216Z,11.48
2023-02-02T03:09:31.402Z,9.36
2023-02-02T03:10:34.269Z,11.39
2023-02-02T03:11:36.848Z,10.28
2023-02-02T03:12:39.613Z,13.53
2023-02-02T03:13:42.395Z,16.44
2023-02-02T03:14:45.466Z,13.90
2023-02-02T03:15:48.284Z,12.68
2023-02-02T03:16:51.013Z,11.38
2023-02-02T03:17:53.784Z,14.16
2023-02-02T03:18:56.450Z,12.41
2023-02-02T03:19:59.738Z,15.43
2023-02-02T03:21:02.431Z,12.71
2023-02-02T03:22:05.066Z,11.53
2023-02-02T03:23:07.977Z,11.58
2023-02-02T03:24:10.530Z,13.13
2023-02-02T03:25:13.500Z,12.09
2023-02-02T03:26:16.300Z,11.93
2023-02-02T03:27:18.834Z,9.53
2023-02-02T03:28:21.802Z,12.80
2023-02-02T03:29:24.368Z,13.94
2023-02-02T03:30:27.544Z,10.38
2023-02-02T03:31:30.301Z,11.29
2023-02-02T03:32:32.890Z,10.73
2023-02-02T03:33:35.572Z,9.62
2023-02-02T03:34:38.336Z,11.37
2023-02-02T03:35:41.318Z,9.08
2023-02-02T03:36:44.083Z,9.45
2023-02-02T03:37:46.754Z,9.90
2023-02-02T03:38:49.422Z,9.92
2023-02-02T03:39:53.759Z,10.08
2023-02-02T03:40:56.314Z,9.84
2023-02-02T03:41:58.992Z,8.49
2023-02-02T03:43:01.650Z,11.24
2023-02-02T03:44:04.313Z,10.88
2023-02-02T03:45:07.300Z,9.04
2023-02-02T03:46:10.068Z,11.23
2023-02-02T03:47:12.631Z,9.91
2023-02-02T03:48:15.321Z,10.23
2023-02-02T03:49:17.987Z,10.19
2023-02-02T03:50:20.976Z,12.02
2023-02-02T03:51:24.131Z,10.98
2023-02-02T03:52:26.901Z,12.18
2023-02-02T03:53:29.577Z,9.07
2023-02-02T03:54:32.353Z,9.95
2023-02-02T03:55:35.216Z,10.77
2023-02-02T03:56:38.127Z,11.97
2023-02-02T03:57:40.772Z,11.47
2023-02-02T03:58:43.431Z,12.46
2023-02-02T03:59:46.217Z,11.92
2023-02-02T04:00:48.780Z,10.63
2023-02-02T04:01:51.367Z,17.44
2023-02-02T04:02:54.128Z,12.71
2023-02-02T04:03:56.790Z,13.94
2023-02-02T04:04:59.572Z,10.26
2023-02-02T04:06:02.469Z,12.00
2023-02-02T04:07:05.300Z,12.26
2023-02-02T04:08:08.279Z,10.94
2023-02-02T04:09:10.947Z,12.55
2023-02-02T04:10:13.614Z,12.62
2023-02-02T04:11:16.339Z,14.45
2023-02-02T04:12:19.262Z,10.48
2023-02-02T04:13:22.156Z,9.32
2023-02-02T04:14:24.593Z,10.64
2023-02-02T04:15:27.791Z,12.74
2023-02-02T04:16:30.456Z,11.68
2023-02-02T04:17:33.234Z,10.65
2023-02-02T04:18:35.792Z,11.45
2023-02-02T04:19:38.673Z,11.75
2023-02-02T04:20:41.361Z,10.75
2023-02-02T04:21:44.116Z,11.12
2023-02-02T04:22:46.889Z,14.32
2023-02-02T04:23:49.561Z,13.81
2023-02-02T04:24:52.133Z,12.50
2023-02-02T04:25:54.796Z,13.26
2023-02-02T04:26:57.457Z,13.74
2023-02-02T04:28:00.147Z,13.61
2023-02-02T04:29:03.010Z,10.21
2023-02-02T04:30:05.775Z,11.42
2023-02-02T04:31:08.559Z,12.09
2023-02-02T04:32:11.273Z,15.54
2023-02-02T04:33:14.308Z,14.45
2023-02-02T04:34:16.979Z,14.42
2023-02-02T04:35:19.854Z,17.25
2023-02-02T04:36:22.512Z,11.41
2023-02-02T04:37:25.415Z,14.17
2023-02-02T04:38:28.461Z,14.62
2023-02-02T04:39:31.217Z,11.91
2023-02-02T04:40:33.918Z,11.08
2023-02-02T04:41:36.697Z,13.37
2023-02-02T04:42:39.350Z,10.82
2023-02-02T04:43:42.229Z,12.19
2023-02-02T04:44:45.214Z,12.88
2023-02-02T04:45:48.171Z,12.48
2023-02-02T04:46:50.875Z,12.02
2023-02-02T04:47:53.532Z,12.75
2023-02-02T04:48:56.201Z,11.96
2023-02-02T04:49:58.985Z,13.48
2023-02-02T04:51:01.641Z,12.55
2023-02-02T04:52:04.415Z,12.97
2023-02-02T04:53:06.989Z,15.35
2023-02-02T04:54:09.891Z,14.59
2023-02-02T04:55:12.722Z,12.99
2023-02-02T04:56:15.604Z,14.02
2023-02-02T04:57:18.496Z,11.46
2023-02-02T04:58:21.153Z,12.52
2023-02-02T04:59:24.020Z,14.61
2023-02-02T05:00:26.709Z,12.53
2023-02-02T05:01:29.282Z,12.65
2023-02-02T05:02:32.056Z,11.85
2023-02-02T05:03:34.615Z,12.10
2023-02-02T05:04:37.881Z,14.75
2023-02-02T05:05:40.448Z,11.87
2023-02-02T05:06:43.231Z,10.66
2023-02-02T05:07:46.101Z,11.88
2023-02-02T05:08:48.797Z,12.86
2023-02-02T05:09:51.853Z,12.09
2023-02-02T05:10:54.527Z,12.42
2023-02-02T05:11:57.292Z,13.45
2023-02-02T05:12:59.961Z,13.47
2023-02-02T05:14:02.545Z,11.93
2023-02-02T05:15:05.816Z,14.32
2023-02-02T05:16:08.420Z,15.75
2023-02-02T05:17:11.272Z,12.49
2023-02-02T05:18:14.160Z,13.32
2023-02-02T05:19:16.904Z,13.70
2023-02-02T05:20:19.877Z,13.56
2023-02-02T05:21:22.560Z,13.39
2023-02-02T05:22:26.445Z,11.70
2023-02-02T05:23:29.233Z,11.82
2023-02-02T05:24:31.787Z,11.84
2023-02-02T05:25:34.768Z,14.32
2023-02-02T05:26:37.455Z,15.38
2023-02-02T05:27:39.993Z,12.35
2023-02-02T05:28:42.562Z,12.52
2023-02-02T05:29:45.335Z,12.76
2023-02-02T05:30:48.436Z,14.45
2023-02-02T05:31:51.076Z,14.05
2023-02-02T05:32:53.657Z,14.11
2023-02-02T05:33:56.420Z,14.28
2023-02-02T05:34:59.097Z,18.07
2023-02-02T05:36:01.785Z,11.11
2023-02-02T05:37:04.339Z,12.88
2023-02-02T05:38:07.024Z,15.84
2023-02-02T05:39:09.679Z,14.26
2023-02-02T05:40:12.344Z,12.06
2023-02-02T05:41:15.167Z,13.45
2023-02-02T05:42:17.793Z,14.23
2023-02-02T05:43:21.643Z,12.95
2023-02-02T05:44:24.358Z,15.17
2023-02-02T05:45:27.299Z,16.00
2023-02-02T05:46:30.400Z,17.32
2023-02-02T05:47:32.777Z,15.38
2023-02-02T05:48:35.439Z,16.41
2023-02-02T05:49:38.443Z,14.78
2023-02-02T05:50:40.993Z,12.75
2023-02-02T05:51:43.754Z,14.47
2023-02-02T05:52:46.634Z,12.25
2023-02-02T05:53:49.315Z,14.95
2023-02-02T05:54:52.397Z,14.85
2023-02-02T05:55:54.948Z,14.03
2023-02-02T05:56:58.131Z,16.22
2023-02-02T05:58:00.824Z,16.18
2023-02-02T05:59:03.474Z,13.43
2023-02-02T06:00:06.148Z,15.14
2023-02-02T06:01:08.971Z,17.00
2023-02-02T06:02:11.586Z,15.03
2023-02-02T06:03:14.426Z,14.07
2023-02-02T06:04:17.763Z,16.86
2023-02-02T06:05:20.516Z,15.06
2023-02-02T06:06:23.291Z,13.46
2023-02-02T06:07:26.060Z,14.60
2023-02-02T06:08:28.734Z,12.75
2023-02-02T06:09:31.534Z,11.74
2023-02-02T06:10:34.187Z,15.04
2023-02-02T06:11:37.056Z,15.27
2023-02-02T06:12:39.755Z,15.58
2023-02-02T06:13:44.332Z,13.48
2023-02-02T06:14:46.524Z,14.19
2023-02-02T06:15:49.319Z,14.38
2023-02-02T06:16:52.141Z,17.20
2023-02-02T06:17:54.712Z,15.11
2023-02-02T06:18:57.436Z,12.99
2023-02-02T06:20:00.192Z,15.65
2023-02-02T06:21:02.716Z,13.16
2023-02-02T06:22:05.399Z,16.88
2023-02-02T06:23:08.292Z,17.02
2023-02-02T06:24:10.825Z,13.32
2023-02-02T06:25:13.721Z,14.99
2023-02-02T06:26:16.425Z,16.42
2023-02-02T06:27:19.059Z,15.77
2023-02-02T06:28:21.835Z,13.00
2023-02-02T06:29:24.503Z,16.10
2023-02-02T06:30:27.468Z,13.19
2023-02-02T06:31:30.269Z,14.07
2023-02-02T06:32:33.442Z,14.88
2023-02-02T06:33:36.479Z,15.07
2023-02-02T06:34:39.964Z,14.10
2023-02-02T06:35:42.732Z,12.98
2023-02-02T06:36:46.054Z,13.04
2023-02-02T06:37:49.171Z,14.21
2023-02-02T06:38:52.310Z,13.72
2023-02-02T06:39:55.265Z,13.48
2023-02-02T06:40:58.155Z,14.61
2023-02-02T06:42:11.896Z,15.64
2023-02-02T06:43:05.637Z,15.51
2023-02-02T06:44:09.110Z,14.26
2023-02-02T06:45:12.099Z,18.17
2023-02-02T06:46:15.252Z,17.12
2023-02-02T06:47:18.153Z,18.54
2023-02-02T06:48:22.777Z,17.16
2023-02-02T06:49:26.065Z,20.07
2023-02-02T06:50:29.196Z,20.83
2023-02-02T06:51:32.119Z,18.08
2023-02-02T06:52:35.293Z,15.04
2023-02-02T06:53:38.384Z,20.68
2023-02-02T06:54:41.564Z,16.34
2023-02-02T06:55:44.635Z,16.70
2023-02-02T06:56:47.813Z,14.94
2023-02-02T06:57:51.167Z,16.52
2023-02-02T06:58:54.413Z,18.73
2023-02-02T06:59:57.776Z,16.22
2023-02-02T07:01:00.939Z,17.02
2023-02-02T07:02:04.234Z,17.42
2023-02-02T07:03:07.075Z,18.47
2023-02-02T07:04:09.796Z,20.62
2023-02-02T07:05:13.338Z,19.56
2023-02-02T07:06:16.057Z,19.59
2023-02-02T07:07:18.916Z,21.05
2023-02-02T07:08:22.085Z,15.87
2023-02-02T07:09:25.177Z,14.07
2023-02-02T07:11:12.875Z,14.89
2023-02-02T07:11:36.153Z,16.34
2023-02-02T07:12:38.517Z,16.26
2023-02-02T07:13:41.475Z,19.47
2023-02-02T07:14:44.485Z,16.51
2023-02-02T07:15:47.456Z,16.03
2023-02-02T07:16:50.482Z,18.04
2023-02-02T07:17:53.298Z,19.59
2023-02-02T07:18:56.356Z,19.36
2023-02-02T07:19:59.201Z,19.25
2023-02-02T07:21:02.241Z,15.54
2023-02-02T07:22:05.110Z,16.02
2023-02-02T07:23:08.280Z,19.02
2023-02-02T07:24:11.355Z,17.65
2023-02-02T07:25:14.334Z,18.75
2023-02-02T07:26:17.769Z,19.76
2023-02-02T07:27:20.698Z,20.91
2023-02-02T07:28:24.079Z,19.74
2023-02-02T07:29:26.887Z,21.68
2023-02-02T07:30:32.768Z,21.02
2023-02-02T07:31:36.995Z,18.41
2023-02-02T07:32:40.205Z,21.66
2023-02-02T07:33:43.676Z,18.33
2023-02-02T07:34:46.794Z,21.20
2023-02-02T07:35:49.739Z,21.17
2023-02-02T07:36:53.344Z,22.63
2023-02-02T07:37:56.536Z,20.03
2023-02-02T07:38:59.903Z,19.70
2023-02-02T07:40:03.090Z,19.18
2023-02-02T07:41:06.256Z,20.34
2023-02-02T07:42:09.564Z,22.31
2023-02-02T07:43:12.410Z,21.90
2023-02-02T07:44:15.289Z,22.18
2023-02-02T07:45:27.197Z,26.52
2023-02-02T07:46:23.154Z,19.70
2023-02-02T07:47:26.475Z,20.12
2023-02-02T07:48:29.537Z,20.65
2023-02-02T07:49:32.788Z,19.69
2023-02-02T07:50:36.124Z,27.62
2023-02-02T07:51:41.358Z,21.17
2023-02-02T07:52:43.922Z,21.71
2023-02-02T07:53:46.807Z,25.46
2023-02-02T07:54:49.781Z,22.61
2023-02-02T07:55:52.659Z,23.69
2023-02-02T07:56:55.802Z,26.78
2023-02-02T07:57:58.844Z,24.91
2023-02-02T07:59:02.006Z,21.38
2023-02-02T08:00:05.269Z,21.78
2023-02-02T08:01:08.670Z,28.45
2023-02-02T08:02:11.686Z,22.28
2023-02-02T08:03:14.634Z,25.49
2023-02-02T08:04:17.484Z,23.49
2023-02-02T08:05:20.668Z,22.72
2023-02-02T08:06:23.437Z,26.78
2023-02-02T08:07:26.425Z,26.18
2023-02-02T08:08:29.616Z,24.65
2023-02-02T08:09:32.576Z,27.63
2023-02-02T08:10:35.562Z,27.76
2023-02-02T08:11:38.768Z,33.22
2023-02-02T08:12:43.055Z,23.68
2023-02-02T08:13:45.913Z,22.90
2023-02-02T08:14:49.097Z,23.12
2023-02-02T08:15:52.337Z,27.02
2023-02-02T08:16:55.169Z,27.60
2023-02-02T08:17:58.338Z,24.22
2023-02-02T08:19:01.752Z,26.00
2023-02-02T08:20:04.748Z,22.23
2023-02-02T08:21:07.691Z,24.72
2023-02-02T08:22:10.559Z,22.82
2023-02-02T08:23:13.551Z,22.88
2023-02-02T08:24:16.713Z,24.27
2023-02-02T08:25:19.602Z,30.79
2023-02-02T08:26:23.146Z,23.77
2023-02-02T08:27:26.071Z,24.26
2023-02-02T08:28:29.054Z,25.08
2023-02-02T08:29:32.318Z,27.98
2023-02-02T08:30:35.379Z,23.16
2023-02-02T08:31:38.469Z,25.94
2023-02-02T08:32:41.360Z,24.05
2023-02-02T08:33:44.321Z,25.12
2023-02-02T08:34:47.638Z,30.68
2023-02-02T08:35:50.503Z,25.72
2023-02-02T08:36:53.795Z,22.45
2023-02-02T08:37:57.076Z,28.07
2023-02-02T08:39:02.054Z,28.39
2023-02-02T08:40:05.032Z,27.52
2023-02-02T08:41:08.251Z,27.37
2023-02-02T08:42:11.637Z,31.61
2023-02-02T08:43:16.613Z,30.29
2023-02-02T08:44:19.661Z,27.98
2023-02-02T08:46:02.591Z,28.51
2023-02-02T08:46:27.600Z,33.60
2023-02-02T08:47:31.136Z,35.79
2023-02-02T08:48:34.748Z,30.55
2023-02-02T08:49:38.094Z,31.26
2023-02-02T08:50:41.492Z,27.38
2023-02-02T08:51:44.618Z,29.75
2023-02-02T08:52:47.555Z,30.72
2023-02-02T08:53:50.474Z,31.37
2023-02-02T08:54:53.501Z,32.27
2023-02-02T08:55:56.367Z,28.24
2023-02-02T08:56:59.556Z,36.20
2023-02-02T08:58:02.648Z,30.08
2023-02-02T08:59:05.624Z,31.39
2023-02-02T09:00:08.596Z,33.61
2023-02-02T09:01:11.838Z,29.20
2023-02-02T09:02:14.689Z,26.14
2023-02-02T09:03:18.021Z,28.72
2023-02-02T09:04:21.003Z,30.79
2023-02-02T09:05:24.510Z,31.29
2023-02-02T09:06:28.215Z,30.01
2023-02-02T09:07:31.065Z,31.43
2023-02-02T09:08:34.332Z,29.58
2023-02-02T09:09:37.323Z,29.57
2023-02-02T09:10:40.615Z,34.13
2023-02-02T09:11:43.627Z,32.43
2023-02-02T09:12:46.873Z,31.05
2023-02-02T09:13:50.051Z,27.06
2023-02-02T09:14:53.274Z,29.14
2023-02-02T09:15:56.328Z,28.91
2023-02-02T09:16:59.576Z,29.25
2023-02-02T09:18:02.363Z,28.91
2023-02-02T09:19:05.567Z,32.55
2023-02-02T09:20:08.536Z,32.68
2023-02-02T09:21:11.508Z,26.25
2023-02-02T09:22:14.565Z,28.75
2023-02-02T09:23:17.453Z,29.22
2023-02-02T09:24:20.673Z,28.18
2023-02-02T09:25:24.070Z,28.53
2023-02-02T09:26:27.794Z,33.01
2023-02-02T09:27:31.627Z,34.26
2023-02-02T09:28:36.832Z,32.18
2023-02-02T09:29:40.130Z,30.95
2023-02-02T09:30:43.288Z,30.32
2023-02-02T09:31:46.506Z,33.62
2023-02-02T09:32:49.712Z,34.66
2023-02-02T09:33:53.196Z,28.11
2023-02-02T09:34:56.245Z,30.04
2023-02-02T09:35:59.320Z,29.75
2023-02-02T09:37:02.296Z,31.12
2023-02-02T09:38:05.795Z,35.97
2023-02-02T09:39:08.899Z,25.50
2023-02-02T09:40:11.857Z,28.26
2023-02-02T09:41:15.172Z,32.69
2023-02-02T09:42:18.120Z,29.30
2023-02-02T09:43:21.285Z,27.36
2023-02-02T09:44:24.087Z,28.21
2023-02-02T09:45:27.436Z,28.79
2023-02-02T09:46:30.427Z,26.39
2023-02-02T09:47:33.110Z,25.70
2023-02-02T09:48:36.382Z,30.34
2023-02-02T09:49:39.362Z,30.94
2023-02-02T09:50:42.452Z,27.40
2023-02-02T09:51:45.518Z,32.73
2023-02-02T09:52:48.397Z,32.42
2023-02-02T09:53:55.770Z,32.65
2023-02-02T09:54:55.799Z,31.07
2023-02-02T09:55:58.760Z,29.78
2023-02-02T09:57:01.870Z,29.25
2023-02-02T09:58:04.816Z,29.58
2023-02-02T09:59:19.335Z,29.55
2023-02-02T10:00:12.299Z,27.92
2023-02-02T10:01:15.214Z,29.65
2023-02-02T10:02:18.049Z,28.10
2023-02-02T10:03:20.867Z,28.47
2023-02-02T10:04:24.142Z,29.06
2023-02-02T10:05:27.273Z,26.00
2023-02-02T10:06:30.372Z,28.98
2023-02-02T10:07:33.450Z,29.63
2023-02-02T10:08:36.675Z,26.05
2023-02-02T10:09:39.840Z,26.45
2023-02-02T10:10:42.996Z,28.17
2023-02-02T10:11:46.069Z,31.28
2023-02-02T10:12:49.139Z,27.73
2023-02-02T10:13:51.929Z,31.44
2023-02-02T10:14:54.888Z,30.02
2023-02-02T10:16:00.471Z,30.72
2023-02-02T10:17:02.292Z,28.74
2023-02-02T10:18:06.193Z,32.29
2023-02-02T10:19:09.159Z,33.10
2023-02-02T10:20:11.832Z,31.06
2023-02-02T10:21:14.805Z,29.55
2023-02-02T10:22:17.722Z,25.87
2023-02-02T10:23:20.671Z,25.80
2023-02-02T10:24:23.634Z,26.79
2023-02-02T10:25:26.874Z,31.16
2023-02-02T10:26:29.958Z,32.14
2023-02-02T10:27:32.891Z,30.49
2023-02-02T10:28:35.801Z,27.61
2023-02-02T10:29:48.465Z,33.67
2023-02-02T10:30:43.291Z,29.81
2023-02-02T10:31:46.399Z,28.20
2023-02-02T10:34:05.397Z,26.99
2023-02-02T10:35:14.024Z,28.01
2023-02-02T10:36:13.019Z,29.72
2023-02-02T10:37:15.872Z,28.12
2023-02-02T10:38:18.951Z,27.57
2023-02-02T10:39:22.080Z,26.30
2023-02-02T10:40:25.563Z,25.75
2023-02-02T10:41:28.801Z,30.22
2023-02-02T10:42:32.081Z,26.98
2023-02-02T10:43:35.268Z,29.54
2023-02-02T10:44:38.243Z,30.46
2023-02-02T10:45:41.417Z,25.75
2023-02-02T10:46:44.923Z,24.05
2023-02-02T10:47:48.141Z,34.05
2023-02-02T10:48:51.305Z,30.08
2023-02-02T10:49:56.314Z,31.18
2023-02-02T10:50:59.002Z,25.07
2023-02-02T10:52:01.771Z,31.20
2023-02-02T10:53:04.906Z,30.31
2023-02-02T10:54:07.805Z,33.78
2023-02-02T10:56:22.018Z,30.02
2023-02-02T10:57:24.799Z,29.41
2023-02-02T10:58:27.573Z,29.32
2023-02-02T10:59:30.555Z,26.80
2023-02-02T11:00:33.425Z,25.62
2023-02-02T11:01:36.988Z,21.61
2023-02-02T11:03:56.292Z,22.85
2023-02-02T11:04:59.157Z,21.19
2023-02-02T11:06:02.236Z,22.23
2023-02-02T11:07:05.125Z,20.77
2023-02-02T11:08:08.319Z,25.45
2023-02-02T11:09:11.086Z,22.78
2023-02-02T11:10:14.151Z,22.36
2023-02-02T11:11:16.827Z,23.88
2023-02-02T11:12:19.485Z,27.36
2023-02-02T11:13:22.365Z,23.64
2023-02-02T11:14:25.029Z,26.56
2023-02-02T11:15:27.716Z,27.64
2023-02-02T11:16:41.992Z,28.38
2023-02-02T11:17:34.986Z,28.86
2023-02-02T11:18:37.982Z,26.72
2023-02-02T11:19:40.937Z,27.18
2023-02-02T11:20:43.822Z,23.45
2023-02-02T11:21:46.588Z,25.96
2023-02-02T11:22:49.459Z,26.68
2023-02-02T11:23:52.640Z,22.38
2023-02-02T11:24:55.632Z,26.30
2023-02-02T11:26:08.228Z,25.82
2023-02-02T11:27:11.307Z,28.05
2023-02-02T11:28:14.174Z,30.53
2023-02-02T11:29:16.854Z,32.40
2023-02-02T11:30:19.746Z,21.32
2023-02-02T11:31:22.661Z,22.77
2023-02-02T11:32:25.676Z,26.55
2023-02-02T11:33:28.540Z,28.58
2023-02-02T11:34:31.422Z,26.38
2023-02-02T11:35:34.330Z,26.26
2023-02-02T11:36:37.519Z,31.62
2023-02-02T11:37:40.248Z,26.58
2023-02-02T11:38:43.123Z,25.04
2023-02-02T11:39:46.004Z,31.14
2023-02-02T11:42:04.764Z,24.78
2023-02-02T11:43:07.934Z,22.36
2023-02-02T11:44:11.227Z,24.79
2023-02-02T11:45:13.994Z,25.80
2023-02-02T11:46:16.997Z,24.42
2023-02-02T11:47:19.883Z,23.96
2023-02-02T11:48:22.719Z,24.35
2023-02-02T11:49:25.526Z,20.55
2023-02-02T11:50:28.518Z,25.71
2023-02-02T11:51:31.360Z,21.65
2023-02-02T11:52:34.333Z,22.68
2023-02-02T11:54:53.600Z,22.90
2023-02-02T11:55:56.373Z,21.09
2023-02-02T11:56:59.133Z,24.21
2023-02-02T11:58:01.810Z,22.53
2023-02-02T11:59:04.786Z,21.08
2023-02-02T12:00:07.551Z,19.41
2023-02-02T12:01:10.425Z,19.53
2023-02-02T12:02:13.467Z,17.11
2023-02-02T12:03:16.172Z,16.31
2023-02-02T12:04:19.430Z,16.65
2023-02-02T12:05:22.132Z,16.51
2023-02-02T12:06:25.206Z,18.26
2023-02-02T12:07:28.011Z,19.17
2023-02-02T12:08:31.169Z,19.11
2023-02-02T12:09:34.143Z,19.30
2023-02-02T12:10:36.896Z,14.58
2023-02-02T12:11:39.990Z,14.69
2023-02-02T12:12:43.825Z,14.91
2023-02-02T12:13:46.489Z,16.66
2023-02-02T12:14:49.539Z,16.24
2023-02-02T12:17:08.703Z,14.72
2023-02-02T12:18:14.898Z,14.58
2023-02-02T12:19:18.958Z,14.63
2023-02-02T12:20:21.851Z,13.79
2023-02-02T12:21:24.510Z,15.77
2023-02-02T12:22:27.699Z,17.03
2023-02-02T12:23:31.086Z,13.48
2023-02-02T12:24:34.369Z,15.42
2023-02-02T12:25:37.246Z,14.78
2023-02-02T12:26:40.721Z,14.45
2023-02-02T12:27:43.495Z,14.56
2023-02-02T12:28:46.579Z,14.19
2023-02-02T12:29:49.568Z,13.61
2023-02-02T12:30:52.611Z,12.83
2023-02-02T12:31:55.545Z,16.67
2023-02-02T12:32:58.372Z,14.78
2023-02-02T12:34:02.486Z,13.83
2023-02-02T12:35:05.268Z,13.31
2023-02-02T12:36:08.561Z,11.74
2023-02-02T12:37:11.629Z,12.21
2023-02-02T12:38:14.614Z,13.24
2023-02-02T12:39:17.583Z,12.65
2023-02-02T12:40:20.670Z,13.78
2023-02-02T12:41:23.527Z,14.66
2023-02-02T12:42:26.503Z,14.15
2023-02-02T12:43:29.483Z,14.36
2023-02-02T12:44:32.771Z,12.81
2023-02-02T12:45:35.942Z,13.97
2023-02-02T12:47:54.905Z,14.87
2023-02-02T12:48:57.571Z,10.12
2023-02-02T12:50:00.343Z,14.10
2023-02-02T12:51:03.142Z,13.62
2023-02-02T12:52:05.783Z,13.85
2023-02-02T12:53:08.906Z,12.20
2023-02-02T12:54:32.756Z,12.69
2023-02-02T12:56:33.066Z,13.08
2023-02-02T12:57:35.956Z,10.38
2023-02-02T12:58:38.810Z,12.31
2023-02-02T12:59:41.675Z,13.19
2023-02-02T13:00:44.478Z,10.02
2023-02-02T13:01:47.422Z,11.17
2023-02-02T13:02:50.200Z,11.92
2023-02-02T13:03:52.972Z,12.31
2023-02-02T13:04:56.054Z,11.72
2023-02-02T13:05:58.946Z,13.08
2023-02-02T13:07:02.034Z,14.86
2023-02-02T13:08:04.998Z,10.95
2023-02-02T13:09:08.062Z,10.83
2023-02-02T13:10:11.650Z,13.73
2023-02-02T13:11:14.327Z,13.29
2023-02-02T13:12:17.153Z,12.61
2023-02-02T13:13:20.073Z,10.05
2023-02-02T13:14:22.844Z,10.48
2023-02-02T13:15:25.819Z,12.97
2023-02-02T13:16:28.780Z,11.25
2023-02-02T13:17:31.777Z,11.36
2023-02-02T13:18:34.647Z,10.38
2023-02-02T13:19:37.518Z,12.94
2023-02-02T13:20:40.313Z,12.53
2023-02-02T13:21:44.805Z,11.64
2023-02-02T13:22:47.798Z,11.75
2023-02-02T13:23:50.479Z,11.38
2023-02-02T13:24:53.434Z,13.86
2023-02-02T13:25:56.266Z,14.01
2023-02-02T13:28:15.265Z,10.86
2023-02-02T13:29:18.041Z,13.08
2023-02-02T13:30:20.981Z,12.37
2023-02-02T13:31:24.161Z,11.98
2023-02-02T13:32:27.174Z,12.43
2023-02-02T13:33:30.158Z,12.54
2023-02-02T13:34:33.240Z,11.74
2023-02-02T13:35:35.909Z,11.54
2023-02-02T13:36:39.068Z,12.97
2023-02-02T13:37:42.064Z,16.09
2023-02-02T13:38:44.728Z,13.07
2023-02-02T13:39:47.754Z,12.41
2023-02-02T13:40:50.484Z,12.98
2023-02-02T13:41:53.560Z,11.88
2023-02-02T13:44:12.501Z,12.41
2023-02-02T13:45:15.188Z,14.55
2023-02-02T13:46:19.109Z,10.78